Time;durP1;ratioP1;P1;durP2;ratioP2;P2;SDS_P1;SDS_P2;PMS_P1;PMS_P2;Temp;Humidity;BMP_temperature;BMP_pressure;BME280_temperature;BME280_humidity;BME280_pressure;Samples;Min_cycle;Max_cycle;Signal;HPM_P1;HPM_P2
2022/10/14 00:01:25;;;;;;;287.88;46.33;;;;;;;11.64;100.00;101494.97;5119277;27;20054;-79
2022/10/14 00:03:54;;;;;;;151.65;36.65;;;;;;;11.62;100.00;101494.94;5119213;27;20228;-78
2022/10/14 00:06:25;;;;;;;240.20;44.40;;;;;;;11.61;100.00;101495.84;5097618;28;20043;-79
2022/10/14 00:08:58;;;;;;;317.02;47.00;;;;;;;11.62;100.00;101491.44;5116557;27;20260;-78
2022/10/14 00:11:30;;;;;;;249.35;41.75;;;;;;;11.60;100.00;101493.19;5103957;27;20040;-78
2022/10/14 00:14:01;;;;;;;330.48;45.38;;;;;;;11.58;100.00;101493.16;5110905;27;20047;-77
2022/10/14 00:16:33;;;;;;;232.25;44.00;;;;;;;11.57;100.00;101483.50;5090971;28;20056;-78
2022/10/14 00:19:02;;;;;;;520.33;58.20;;;;;;;11.55;100.00;101490.50;5124373;27;20043;-78
2022/10/14 00:21:32;;;;;;;357.50;48.92;;;;;;;11.54;100.00;101477.28;5086237;28;20040;-79
2022/10/14 00:24:00;;;;;;;346.50;47.90;;;;;;;11.51;100.00;101484.31;5098872;28;20063;-77
2022/10/14 00:26:32;;;;;;;178.95;38.30;;;;;;;11.50;100.00;101486.94;5110388;28;20063;-78
2022/10/14 00:29:01;;;;;;;123.05;33.88;;;;;;;11.48;100.00;101479.00;5059201;28;20533;-77
2022/10/14 00:31:31;;;;;;;103.95;33.38;;;;;;;11.46;100.00;101487.78;5095887;28;20047;-77
2022/10/14 00:34:00;;;;;;;132.30;33.63;;;;;;;11.44;100.00;101486.88;5123843;27;20070;-77
2022/10/14 00:36:29;;;;;;;242.35;39.05;;;;;;;11.42;100.00;101505.34;5099797;28;20367;-78
2022/10/14 00:38:57;;;;;;;451.05;51.92;;;;;;;11.37;100.00;101504.41;5106260;27;20047;-78
2022/10/14 00:41:30;;;;;;;167.18;35.08;;;;;;;11.31;100.00;101502.56;5119701;28;20515;-78
2022/10/14 00:44:09;;;;;;;484.38;55.13;;;;;;;11.29;100.00;101512.22;5069604;28;20080;-78
2022/10/14 00:46:41;;;;;;;345.25;40.45;;;;;;;11.22;100.00;101507.75;5100938;28;20614;-78
2022/10/14 00:49:15;;;;;;;308.52;45.58;;;;;;;11.17;100.00;101504.19;5105563;28;20031;-78
2022/10/14 00:51:50;;;;;;;324.20;44.55;;;;;;;11.12;100.00;101506.75;5108335;28;20062;-78
2022/10/14 00:54:23;;;;;;;168.65;34.45;;;;;;;11.10;100.00;101505.00;5084350;28;20043;-76
2022/10/14 00:56:52;;;;;;;148.80;32.50;;;;;;;11.07;100.00;101499.66;5104300;28;20596;-78
2022/10/14 00:59:20;;;;;;;310.70;39.50;;;;;;;11.03;100.00;101495.22;5071123;28;20038;-77
2022/10/14 01:01:49;;;;;;;184.05;33.88;;;;;;;11.01;100.00;101496.97;5086306;28;20695;-77
2022/10/14 01:04:17;;;;;;;177.57;36.42;;;;;;;10.98;100.00;101495.16;5085794;28;20137;-79
2022/10/14 01:07:10;;;;;;;83.28;26.70;;;;;;;10.98;100.00;101496.91;5067697;28;20256;-77
2022/10/14 01:09:59;;;;;;;85.43;28.95;;;;;;;10.96;100.00;101488.09;5079270;28;20256;-77
2022/10/14 01:12:43;;;;;;;74.07;26.27;;;;;;;10.96;100.00;101493.38;5110895;28;20048;-77
2022/10/14 01:15:30;;;;;;;52.97;25.45;;;;;;;10.96;100.00;101486.34;5059937;27;20057;-77
2022/10/14 01:18:19;;;;;;;71.03;26.73;;;;;;;10.97;100.00;101481.97;5105797;28;20043;-77
2022/10/14 01:21:00;;;;;;;63.35;27.50;;;;;;;10.96;100.00;101477.56;5123794;27;20179;-77
2022/10/14 01:24:20;;;;;;;87.78;27.17;;;;;;;10.96;100.00;101472.28;5111856;27;20044;-78
2022/10/14 01:27:10;;;;;;;80.00;25.50;;;;;;;10.91;100.00;101465.22;5079258;27;20066;-78
2022/10/14 01:30:10;;;;;;;71.57;25.90;;;;;;;10.89;100.00;101466.06;5064486;27;20629;-77
2022/10/14 01:33:07;;;;;;;67.95;23.55;;;;;;;10.86;100.00;101458.13;5100726;28;20043;-77
2022/10/14 01:36:02;;;;;;;134.23;28.92;;;;;;;10.82;100.00;101457.19;5089130;27;20039;-78
2022/10/14 01:38:45;;;;;;;73.35;23.88;;;;;;;10.78;100.00;101457.16;5085150;28;20508;-78
2022/10/14 01:41:21;;;;;;;107.18;25.65;;;;;;;10.74;100.00;101456.22;5114016;27;20054;-80
2022/10/14 01:43:53;;;;;;;78.10;23.98;;;;;;;10.70;100.00;101454.41;5100097;27;20235;-77
2022/10/14 01:46:24;;;;;;;60.80;22.73;;;;;;;10.66;100.00;101452.59;5054755;27;20491;-78
2022/10/14 01:49:02;;;;;;;93.53;25.52;;;;;;;10.64;100.00;101456.94;5114530;27;20264;-77
2022/10/14 01:52:12;;;;;;;164.43;29.23;;;;;;;10.58;100.00;101460.41;5100852;27;20397;-77
2022/10/14 01:54:43;;;;;;;;;;;;;;;10.49;100.00;101458.53;5080196;27;20251;-78
2022/10/14 01:57:18;;;;;;;172.63;27.83;;;;;;;10.43;100.00;101455.81;5105454;28;19942;-77
2022/10/14 01:59:49;;;;;;;202.18;27.25;;;;;;;10.35;100.00;101452.19;5054957;27;22710;-78
2022/10/14 02:02:18;;;;;;;250.65;29.58;;;;;;;10.30;100.00;101446.88;5106183;28;20496;-78
2022/10/14 02:04:47;;;;;;;171.73;28.40;;;;;;;10.26;100.00;101441.50;5109818;27;20607;-78
2022/10/14 02:07:26;;;;;;;69.72;18.05;;;;;;;10.22;100.00;101437.94;5089332;28;20044;-78
2022/10/14 02:09:55;;;;;;;84.22;17.17;;;;;;;10.21;100.00;101440.53;5105952;27;20264;-79
2022/10/14 02:13:00;;;;;;;133.85;20.92;;;;;;;10.18;100.00;101444.00;5120509;27;20035;-79
2022/10/14 02:15:56;;;;;;;205.45;27.25;;;;;;;10.12;100.00;101450.09;5063919;27;20036;-78
2022/10/14 02:18:47;;;;;;;212.00;26.38;;;;;;;10.07;100.00;101435.06;5107115;27;20047;-79
2022/10/14 02:21:30;;;;;;;59.45;16.13;;;;;;;10.04;100.00;101442.94;5116974;27;20050;-78
2022/10/14 02:24:26;;;;;;;50.45;14.60;;;;;;;10.01;100.00;101437.63;5102362;27;20039;-78
2022/10/14 02:26:59;;;;;;;116.75;21.40;;;;;;;9.98;100.00;101441.09;5099231;27;20035;-78
2022/10/14 02:29:29;;;;;;;55.50;15.60;;;;;;;9.95;100.00;101433.16;5104244;27;20040;-78
2022/10/14 02:31:59;;;;;;;119.60;19.23;;;;;;;9.92;100.00;101441.91;5085701;27;20596;-78
2022/10/14 02:34:27;;;;;;;69.63;14.95;;;;;;;9.90;100.00;101440.97;5114381;27;20051;-77
2022/10/14 02:36:57;;;;;;;106.10;20.08;;;;;;;9.88;100.00;101442.69;5102252;27;20047;-78
2022/10/14 02:39:32;;;;;;;189.02;25.00;;;;;;;9.84;100.00;101450.53;5082824;28;20405;-77
2022/10/14 02:42:01;;;;;;;74.60;17.08;;;;;;;9.81;100.00;101450.47;5100598;28;20052;-78
2022/10/14 02:44:29;;;;;;;100.07;18.92;;;;;;;9.78;100.00;101447.81;5105851;28;20047;-77
2022/10/14 02:46:58;;;;;;;106.47;20.60;;;;;;;9.72;100.00;101446.84;5071953;28;20495;-77
2022/10/14 02:49:30;;;;;;;143.20;22.77;;;;;;;9.68;100.00;101452.91;5050203;28;20050;-78
2022/10/14 02:51:58;;;;;;;102.65;18.17;;;;;;;9.64;100.00;101456.38;5098250;28;20138;-77
2022/10/14 02:54:26;;;;;;;76.78;16.00;;;;;;;9.57;100.00;101449.22;5100650;28;20056;-77
2022/10/14 02:56:55;;;;;;;134.00;22.52;;;;;;;9.52;100.00;101450.88;5092290;28;20039;-78
2022/10/14 02:59:24;;;;;;;92.32;15.77;;;;;;;9.48;100.00;101442.03;5072662;28;20032;-78
2022/10/14 03:01:53;;;;;;;91.43;17.00;;;;;;;9.44;100.00;101452.50;5105806;28;20048;-78
2022/10/14 03:04:22;;;;;;;99.18;17.35;;;;;;;9.39;100.00;101454.16;5070158;28;20044;-78
2022/10/14 03:06:52;;;;;;;54.33;14.20;;;;;;;9.38;100.00;101441.88;5070257;28;20236;-78
2022/10/14 03:09:23;;;;;;;139.25;17.20;;;;;;;9.34;100.00;101441.81;5086212;28;20036;-77
2022/10/14 03:11:51;;;;;;;212.38;23.90;;;;;;;9.31;100.00;101439.13;5092141;28;20158;-78
2022/10/14 03:14:21;;;;;;;107.90;16.75;;;;;;;9.30;100.00;101437.38;5082730;28;20048;-77
2022/10/14 03:16:51;;;;;;;61.25;13.40;;;;;;;9.29;100.00;101429.44;5098865;28;20044;-78
2022/10/14 03:19:23;;;;;;;77.00;15.48;;;;;;;9.29;100.00;101422.44;5064552;28;20062;-79
2022/10/14 03:21:54;;;;;;;119.82;19.67;;;;;;;9.31;100.00;101433.84;5087378;28;20043;-78
2022/10/14 03:24:23;;;;;;;122.75;18.30;;;;;;;9.30;100.00;101434.72;5069409;28;20031;-77
2022/10/14 03:27:11;;;;;;;125.45;21.05;;;;;;;9.30;100.00;101424.22;5074470;28;20063;-78
2022/10/14 03:29:41;;;;;;;81.22;15.57;;;;;;;9.31;100.00;101431.22;5066751;28;20555;-77
2022/10/14 03:32:16;;;;;;;100.60;16.27;;;;;;;9.31;100.00;101430.34;5085192;28;20028;-78
2022/10/14 03:35:05;;;;;;;129.98;17.25;;;;;;;9.29;100.00;101427.69;5043946;28;20047;-78
2022/10/14 03:37:35;;;;;;;136.27;18.33;;;;;;;9.27;100.00;101428.53;5080921;28;20040;-79
2022/10/14 03:40:05;;;;;;;91.82;18.02;;;;;;;9.24;100.00;101429.34;5092046;28;20051;-79
2022/10/14 03:42:34;;;;;;;115.15;17.40;;;;;;;9.21;100.00;101442.44;5087270;28;20047;-79
2022/10/14 03:45:03;;;;;;;133.52;19.52;;;;;;;9.16;100.00;101429.22;5096402;28;20035;-77
2022/10/14 03:47:32;;;;;;;84.30;15.68;;;;;;;9.14;100.00;101427.41;5097540;28;20044;-78
2022/10/14 03:50:03;;;;;;;186.57;21.13;;;;;;;9.12;100.00;101432.63;5043596;28;20039;-77
2022/10/14 03:52:40;;;;;;;95.38;17.55;;;;;;;9.11;100.00;101437.88;5080390;28;20048;-78
2022/10/14 03:55:33;;;;;;;58.55;14.60;;;;;;;9.11;100.00;101430.88;5083139;27;20034;-78
2022/10/14 03:58:03;;;;;;;177.20;21.88;;;;;;;9.13;100.00;101430.88;5077040;28;20523;-77
2022/10/14 04:00:34;;;;;;;111.75;18.08;;;;;;;9.12;100.00;101432.63;5086303;28;20040;-77
2022/10/14 04:03:21;;;;;;;179.00;16.60;;;;;;;9.11;100.00;101427.34;5055876;28;20043;-77
2022/10/14 04:05:49;;;;;;;87.63;15.07;;;;;;;9.09;100.00;101424.72;5041444;28;20300;-77
2022/10/14 04:08:22;;;;;;;131.25;14.73;;;;;;;9.11;100.00;101440.50;5071165;28;20032;-78
2022/10/14 04:11:01;;;;;;;130.38;15.48;;;;;;;9.10;100.00;101431.72;5090512;28;20043;-77
2022/10/14 04:13:35;;;;;;;92.28;17.52;;;;;;;9.10;100.00;101430.84;5085312;28;20044;-78
2022/10/14 04:16:06;;;;;;;138.88;16.52;;;;;;;9.09;100.00;101432.59;5097238;28;20036;-78
2022/10/14 04:18:58;;;;;;;119.88;15.43;;;;;;;9.09;100.00;101424.72;5082474;28;20067;-77
2022/10/14 04:21:26;;;;;;;92.05;13.98;;;;;;;9.09;100.00;101435.22;5051528;28;20259;-77
2022/10/14 04:23:54;;;;;;;253.13;24.75;;;;;;;9.09;100.00;101435.22;5090880;28;20059;-78
2022/10/14 04:26:35;;;;;;;39.83;12.50;;;;;;;9.12;100.00;101437.03;5086890;28;20047;-78
2022/10/14 04:29:08;;;;;;;89.53;15.80;;;;;;;9.14;100.00;101432.69;5077050;28;20046;-78
2022/10/14 04:31:49;;;;;;;56.80;13.77;;;;;;;9.15;100.00;101424.81;5073820;28;20062;-77
2022/10/14 04:34:19;;;;;;;116.97;17.88;;;;;;;9.17;100.00;101430.13;5091916;28;20067;-77
2022/10/14 04:36:47;;;;;;;83.38;15.63;;;;;;;9.18;100.00;101429.25;5045433;28;20056;-77
2022/10/14 04:39:25;;;;;;;123.38;15.15;;;;;;;9.17;100.00;101420.47;5090301;28;20059;-78
2022/10/14 04:41:54;;;;;;;66.43;12.52;;;;;;;9.18;100.00;101419.59;5097639;28;20043;-77
2022/10/14 04:44:23;;;;;;;48.15;12.38;;;;;;;9.18;100.00;101416.97;5086608;28;20257;-77
2022/10/14 04:46:54;;;;;;;34.70;10.60;;;;;;;9.21;100.00;101421.41;5104744;28;20039;-78
2022/10/14 04:49:31;;;;;;;23.08;10.35;;;;;;;9.23;100.00;101416.19;5088507;28;20052;-77
2022/10/14 04:52:08;;;;;;;40.40;11.55;;;;;;;9.26;100.00;101411.88;5039063;28;20484;-78
2022/10/14 04:54:54;;;;;;;74.47;14.13;;;;;;;9.28;100.00;101411.88;5099913;28;20031;-77
2022/10/14 04:57:34;;;;;;;53.60;13.07;;;;;;;9.27;100.00;101403.09;5077037;28;20152;-78
2022/10/14 05:00:03;;;;;;;59.30;13.40;;;;;;;9.30;100.00;101404.91;5079720;28;20043;-78
2022/10/14 05:02:55;;;;;;;96.35;16.70;;;;;;;9.32;100.00;101408.47;5094827;28;20400;-77
2022/10/14 05:05:30;;;;;;;45.05;13.00;;;;;;;9.34;100.00;101401.47;5085702;28;20257;-78
2022/10/14 05:08:01;;;;;;;44.22;12.65;;;;;;;9.37;100.00;101406.78;5066007;28;20420;-78
2022/10/14 05:10:36;;;;;;;57.88;13.38;;;;;;;9.38;100.00;101405.06;5094529;28;20050;-78
2022/10/14 05:13:08;;;;;;;29.45;11.68;;;;;;;9.39;100.00;101393.66;5092398;28;20036;-78
2022/10/14 05:15:48;;;;;;;41.15;13.98;;;;;;;9.43;100.00;101400.72;5061895;28;20059;-77
2022/10/14 05:18:16;;;;;;;49.28;14.13;;;;;;;9.44;100.00;101400.75;5087440;28;20043;-78
2022/10/14 05:21:00;;;;;;;99.38;16.88;;;;;;;9.47;100.00;101389.41;5108582;28;20044;-78
2022/10/14 05:23:44;;;;;;;69.60;16.63;;;;;;;9.49;100.00;101393.84;5063872;28;20040;-77
2022/10/14 05:26:12;;;;;;;137.13;17.67;;;;;;;9.52;100.00;101398.25;5076328;28;20479;-77
2022/10/14 05:28:42;;;;;;;70.63;15.83;;;;;;;9.53;100.00;101387.75;5083829;28;20043;-77
2022/10/14 05:31:11;;;;;;;33.78;13.52;;;;;;;9.56;100.00;101387.81;5077981;28;20294;-77
2022/10/14 05:33:46;;;;;;;45.30;14.85;;;;;;;9.60;100.00;101378.22;5102540;28;20043;-77
2022/10/14 05:36:18;;;;;;;64.43;15.77;;;;;;;9.62;100.00;101379.16;5096192;28;20548;-76
2022/10/14 05:38:49;;;;;;;64.80;15.60;;;;;;;9.64;100.00;101371.25;5034979;28;20548;-77
2022/10/14 05:41:21;;;;;;;41.25;14.15;;;;;;;9.66;100.00;101362.53;5057728;28;20051;-77
2022/10/14 05:43:50;;;;;;;95.18;16.98;;;;;;;9.68;100.00;101354.66;5052502;28;20051;-76
2022/10/14 05:46:19;;;;;;;80.28;15.82;;;;;;;9.69;100.00;101357.31;5046900;28;20048;-77
2022/10/14 05:48:55;;;;;;;64.32;16.52;;;;;;;9.70;100.00;101356.44;5055853;28;20044;-78
2022/10/14 05:51:25;;;;;;;;;;;;;;;9.73;100.00;101350.34;5059537;28;20032;-77
2022/10/14 05:54:00;;;;;;;208.32;20.15;;;;;;;9.73;100.00;101353.88;5038225;28;20092;-77
2022/10/14 05:56:29;;;;;;;242.18;22.30;;;;;;;9.76;100.00;101345.13;5066898;28;20032;-78
2022/10/14 05:58:58;;;;;;;114.57;17.67;;;;;;;9.78;100.00;101338.13;5081621;28;20588;-77
2022/10/14 06:01:27;;;;;;;141.15;18.02;;;;;;;9.79;100.00;101337.25;5056816;28;20040;-77
2022/10/14 06:03:56;;;;;;;108.40;16.17;;;;;;;9.80;100.00;101325.88;5060191;28;20232;-77
2022/10/14 06:06:24;;;;;;;212.00;18.60;;;;;;;9.81;100.00;101332.94;5084721;28;20405;-77
2022/10/14 06:08:56;;;;;;;165.07;15.57;;;;;;;9.82;100.00;101328.53;5083486;28;20036;-77
2022/10/14 06:11:25;;;;;;;256.42;24.70;;;;;;;9.81;100.00;101321.50;5041850;27;20027;-77
2022/10/14 06:13:55;;;;;;;102.50;15.63;;;;;;;9.82;100.00;101333.81;5050191;28;20027;-78
2022/10/14 06:16:23;;;;;;;136.52;17.75;;;;;;;9.84;100.00;101329.44;5065404;28;20036;-77
2022/10/14 06:18:51;;;;;;;282.92;19.77;;;;;;;9.82;100.00;101329.41;5046679;28;20353;-77
2022/10/14 06:21:22;;;;;;;115.63;15.93;;;;;;;9.83;100.00;101325.03;5075912;28;20114;-79
2022/10/14 06:23:52;;;;;;;123.10;17.17;;;;;;;9.83;100.00;101323.31;5053023;28;20043;-77
2022/10/14 06:26:20;;;;;;;233.27;17.87;;;;;;;9.84;100.00;101329.44;5047142;28;20047;-78
2022/10/14 06:28:49;;;;;;;264.27;17.27;;;;;;;9.81;100.00;101326.75;5073292;28;20050;-77
2022/10/14 06:31:17;;;;;;;133.35;13.60;;;;;;;9.79;100.00;101325.84;5095171;28;20047;-77
2022/10/14 06:33:47;;;;;;;136.65;14.90;;;;;;;9.78;100.00;101327.59;5055287;28;20042;-77
2022/10/14 06:36:16;;;;;;;223.27;17.48;;;;;;;9.79;100.00;101329.34;5083574;27;20048;-77
2022/10/14 06:38:47;;;;;;;108.55;14.57;;;;;;;9.81;100.00;101327.66;5074775;27;20148;-77
2022/10/14 06:41:15;;;;;;;129.32;17.48;;;;;;;9.83;100.00;101322.41;5120416;27;20051;-77
2022/10/14 06:43:44;;;;;;;108.93;13.90;;;;;;;9.87;100.00;101334.75;5069586;27;20053;-77
2022/10/14 06:46:12;;;;;;;94.43;16.23;;;;;;;9.88;100.00;101312.81;5128150;27;20043;-76
2022/10/14 06:48:45;;;;;;;80.80;15.43;;;;;;;9.89;100.00;101314.59;5096643;27;20546;-78
2022/10/14 06:51:18;;;;;;;279.90;22.33;;;;;;;9.92;100.00;101305.00;5108355;27;20039;-78
2022/10/14 06:53:46;;;;;;;113.45;16.17;;;;;;;9.95;100.00;101314.69;5096995;28;20459;-78
2022/10/14 06:56:14;;;;;;;98.57;15.93;;;;;;;9.98;100.00;101311.19;5088684;27;20054;-78
2022/10/14 06:58:42;;;;;;;254.20;21.90;;;;;;;9.99;100.00;101320.88;5067904;27;20427;-78
2022/10/14 07:01:12;;;;;;;161.90;17.70;;;;;;;10.00;100.00;101323.53;5126118;27;20062;-78
2022/10/14 07:03:40;;;;;;;209.25;18.83;;;;;;;10.02;100.00;101320.91;5089235;27;20050;-78
2022/10/14 07:06:08;;;;;;;166.43;18.75;;;;;;;10.04;100.00;101321.81;5109237;27;20049;-77
2022/10/14 07:08:37;;;;;;;298.98;19.98;;;;;;;10.06;100.00;101320.09;5100663;28;20047;-78
2022/10/14 07:11:05;;;;;;;275.52;23.17;;;;;;;10.07;100.00;101313.94;5092492;28;20147;-78
2022/10/14 07:13:34;;;;;;;173.07;18.92;;;;;;;10.08;100.00;101310.47;5064444;27;20044;-78
2022/10/14 07:16:03;;;;;;;209.05;18.98;;;;;;;10.09;100.00;101317.47;5071352;28;20039;-78
2022/10/14 07:18:31;;;;;;;166.88;20.23;;;;;;;10.11;100.00;101319.28;5091048;27;20278;-78
2022/10/14 07:21:04;;;;;;;141.52;18.63;;;;;;;10.13;100.00;101312.28;5105980;27;20256;-78
2022/10/14 07:23:32;;;;;;;122.32;16.85;;;;;;;10.15;100.00;101307.00;5079387;27;20046;-78
2022/10/14 07:26:01;;;;;;;164.70;18.30;;;;;;;10.19;100.00;101322.03;5120691;27;20054;-77
2022/10/14 07:28:30;;;;;;;200.25;19.73;;;;;;;10.21;100.00;101319.38;5104988;27;20047;-77
2022/10/14 07:31:07;;;;;;;109.70;18.10;;;;;;;10.24;100.00;101316.78;5103686;27;20047;-78
2022/10/14 07:33:37;;;;;;;114.38;19.75;;;;;;;10.28;100.00;101334.41;5090381;28;20044;-78
2022/10/14 07:36:13;;;;;;;195.45;25.42;;;;;;;10.33;100.00;101338.00;5123479;27;20050;-78
2022/10/14 07:38:47;;;;;;;158.68;22.63;;;;;;;10.36;100.00;101331.88;5103145;27;20456;-78
2022/10/14 07:41:20;;;;;;;126.70;21.15;;;;;;;10.39;100.00;101335.44;5115428;27;20050;-78
2022/10/14 07:43:52;;;;;;;106.18;21.38;;;;;;;10.43;100.00;101342.50;5101359;28;20247;-78
2022/10/14 07:46:31;;;;;;;197.30;25.25;;;;;;;10.47;100.00;101346.97;5070479;27;20047;-78
2022/10/14 07:49:26;;;;;;;144.82;21.98;;;;;;;10.50;100.00;101346.13;5072831;27;20039;-78
2022/10/14 07:51:54;;;;;;;97.05;22.60;;;;;;;10.52;100.00;101347.88;5100425;28;20047;-78
2022/10/14 07:54:25;;;;;;;122.30;25.55;;;;;;;10.53;100.00;101341.78;5097565;28;20050;-77
2022/10/14 07:56:53;;;;;;;96.93;25.80;;;;;;;10.56;100.00;101342.66;5065564;28;20272;-78
2022/10/14 07:59:21;;;;;;;82.38;23.35;;;;;;;10.56;100.00;101340.03;5098352;28;20043;-77
2022/10/14 08:01:52;;;;;;;118.43;28.00;;;;;;;10.58;100.00;101348.84;5058899;28;20051;-78
2022/10/14 08:04:21;;;;;;;70.78;21.85;;;;;;;10.57;100.00;101350.59;5063607;28;20028;-77
2022/10/14 08:06:50;;;;;;;65.28;21.67;;;;;;;10.62;100.00;101343.59;5120176;28;20243;-78
2022/10/14 08:09:19;;;;;;;73.03;23.70;;;;;;;10.70;100.00;101346.34;5103985;27;20050;-78
2022/10/14 08:11:47;;;;;;;61.20;22.70;;;;;;;10.75;100.00;101339.34;5104801;27;20048;-78
2022/10/14 08:14:16;;;;;;;59.20;23.65;;;;;;;10.79;100.00;101335.00;5091966;28;20039;-77
2022/10/14 08:16:44;;;;;;;66.50;21.38;;;;;;;10.80;100.00;101336.78;5077080;27;20048;-78
2022/10/14 08:19:13;;;;;;;61.60;22.50;;;;;;;10.80;100.00;101349.97;5079897;28;20042;-77
2022/10/14 08:21:42;;;;;;;54.60;22.30;;;;;;;10.80;100.00;101337.66;5083437;28;20043;-77
2022/10/14 08:24:11;;;;;;;68.00;23.55;;;;;;;10.81;100.00;101336.81;5091364;27;20042;-77
2022/10/14 08:26:56;;;;;;;65.50;22.85;;;;;;;10.84;100.00;101341.22;5092314;27;20052;-78
2022/10/14 08:29:26;;;;;;;56.40;22.73;;;;;;;10.85;100.00;101328.03;5093535;27;20059;-77
2022/10/14 08:31:54;;;;;;;56.03;21.95;;;;;;;10.87;100.00;101330.69;5058947;27;20283;-78
2022/10/14 08:34:23;;;;;;;62.60;24.02;;;;;;;10.89;100.00;101326.31;5091783;27;20038;-78
2022/10/14 08:36:55;;;;;;;54.03;23.17;;;;;;;10.90;100.00;101325.44;5096681;28;20263;-77
2022/10/14 08:39:28;;;;;;;50.67;22.73;;;;;;;10.91;100.00;101317.56;5105140;27;20504;-80
2022/10/14 08:42:25;;;;;;;48.08;22.83;;;;;;;10.96;100.00;101321.97;5099787;28;20048;-79
2022/10/14 08:44:57;;;;;;;51.72;22.73;;;;;;;10.99;100.00;101301.78;5086622;27;20062;-78
2022/10/14 08:47:35;;;;;;;57.42;24.48;;;;;;;11.03;100.00;101315.91;5072661;27;20050;-77
2022/10/14 08:50:18;;;;;;;48.97;23.30;;;;;;;11.06;100.00;101300.97;5123562;27;20058;-77
2022/10/14 08:52:54;;;;;;;54.38;24.77;;;;;;;11.08;100.00;101304.50;5076472;27;20604;-78
2022/10/14 08:55:26;;;;;;;59.47;25.83;;;;;;;11.11;100.00;101306.28;5089957;27;20042;-78
2022/10/14 08:58:04;;;;;;;56.92;28.55;;;;;;;11.12;100.00;101294.88;5106248;28;20039;-78
2022/10/14 09:00:41;;;;;;;63.42;26.42;;;;;;;11.11;100.00;101294.00;5108355;27;20031;-78
2022/10/14 09:03:20;;;;;;;56.50;24.48;;;;;;;11.16;100.00;101290.50;5076174;27;20075;-77
2022/10/14 09:05:56;;;;;;;54.35;26.25;;;;;;;11.18;100.00;101289.63;5102787;27;20047;-78
2022/10/14 09:08:32;;;;;;;57.67;26.67;;;;;;;11.24;100.00;101288.81;5103388;27;20496;-78
2022/10/14 09:11:01;;;;;;;52.35;25.67;;;;;;;11.23;100.00;101282.66;5115809;27;20039;-78
2022/10/14 09:13:42;;;;;;;52.05;25.00;;;;;;;11.27;100.00;101291.47;5112828;27;20040;-77
2022/10/14 09:16:28;;;;;;;55.13;25.10;;;;;;;11.35;100.00;101283.63;5094630;27;20047;-77
2022/10/14 09:19:03;;;;;;;38.33;22.17;;;;;;;11.41;100.00;101281.00;5075480;27;20531;-79
2022/10/14 09:21:42;;;;;;;40.60;22.67;;;;;;;11.50;100.00;101278.44;5106287;27;20527;-77
2022/10/14 09:24:31;;;;;;;45.67;23.92;;;;;;;11.56;100.00;101273.19;5083169;27;20047;-77
2022/10/14 09:27:12;;;;;;;42.00;23.30;;;;;;;11.65;100.00;101273.25;5094860;27;20255;-77
2022/10/14 09:29:49;;;;;;;42.42;23.95;;;;;;;11.77;100.00;101275.06;5114425;27;20385;-77
2022/10/14 09:32:39;;;;;;;38.45;21.17;;;;;;;11.92;100.00;101273.41;5095793;28;20074;-77
2022/10/14 09:35:40;;;;;;;36.20;23.23;;;;;;;12.01;100.00;101281.38;5077470;27;20051;-76
2022/10/14 09:38:11;;;;;;;31.75;20.08;;;;;;;12.05;100.00;101275.22;5082650;27;20058;-79
2022/10/14 09:40:44;;;;;;;32.67;19.45;;;;;;;12.01;100.00;101274.31;5092082;27;20069;-77
2022/10/14 09:43:20;;;;;;;27.30;19.83;;;;;;;12.01;100.00;101274.31;5093037;28;20066;-78
2022/10/14 09:45:56;;;;;;;29.50;18.85;;;;;;;12.05;100.00;101270.81;5088323;27;20035;-76
2022/10/14 09:48:41;;;;;;;32.85;20.33;;;;;;;12.12;100.00;101263.81;5089610;27;20048;-77
2022/10/14 09:51:17;;;;;;;30.75;18.75;;;;;;;12.22;100.00;101262.06;5107181;28;20040;-78
2022/10/14 09:53:50;;;;;;;33.50;18.83;;;;;;;12.28;100.00;101268.25;5088256;27;20122;-77
2022/10/14 09:56:30;;;;;;;32.83;19.88;;;;;;;12.36;100.00;101265.66;5114499;27;20039;-78
2022/10/14 09:59:00;;;;;;;35.35;19.73;;;;;;;12.40;100.00;101259.50;5101450;27;20435;-77
2022/10/14 10:01:37;;;;;;;27.35;17.65;;;;;;;12.41;100.00;101261.25;5075225;27;20036;-77
2022/10/14 10:04:31;;;;;;;28.63;19.13;;;;;;;12.44;100.00;101250.69;5112041;27;20050;-77
2022/10/14 10:07:04;;;;;;;32.65;19.98;;;;;;;12.49;100.00;101250.69;5057165;27;20504;-77
2022/10/14 10:09:33;;;;;;;34.05;19.35;;;;;;;12.55;100.00;101248.06;5085912;27;20039;-77
2022/10/14 10:12:21;;;;;;;28.45;18.25;;;;;;;12.64;100.00;101244.53;5102439;28;20436;-77
2022/10/14 10:15:05;;;;;;;29.25;18.98;;;;;;;12.65;100.00;101235.75;5105825;27;20266;-77
2022/10/14 10:17:37;;;;;;;29.58;19.60;;;;;;;12.64;100.00;101240.13;5093199;27;20150;-78
2022/10/14 10:20:32;;;;;;;27.95;18.25;;;;;;;12.66;100.00;101233.09;5068680;27;20035;-78
2022/10/14 10:23:19;;;;;;;28.38;19.08;;;;;;;12.67;100.00;101228.69;5086007;27;20319;-78
2022/10/14 10:25:48;;;;;;;31.08;20.88;;;;;;;12.69;100.00;101224.28;5113432;27;20363;-79
2022/10/14 10:28:31;;;;;;;28.02;20.00;;;;;;;12.70;100.00;101220.72;5117876;27;20039;-78
2022/10/14 10:31:25;;;;;;;34.88;20.58;;;;;;;12.70;100.00;101222.50;5111230;27;20255;-78
2022/10/14 10:34:22;;;;;;;25.65;19.05;;;;;;;12.62;100.00;101214.56;5112789;27;20339;-77
2022/10/14 10:37:00;;;;;;;30.55;20.17;;;;;;;12.64;100.00;101212.81;5086542;27;20248;-78
2022/10/14 10:39:45;;;;;;;30.05;20.08;;;;;;;12.63;100.00;101204.00;5114524;27;20046;-77
2022/10/14 10:42:22;;;;;;;30.77;20.77;;;;;;;12.64;100.00;101203.09;5117155;27;20048;-78
2022/10/14 10:45:43;;;;;;;31.20;21.13;;;;;;;12.66;100.00;101196.09;5102924;27;20142;-78
2022/10/14 10:48:45;;;;;;;32.50;21.33;;;;;;;12.66;100.00;101187.25;5050799;27;20054;-78
2022/10/14 10:51:29;;;;;;;33.10;21.25;;;;;;;12.67;100.00;101186.38;5101383;27;20051;-79
2022/10/14 10:54:29;;;;;;;29.33;19.27;;;;;;;12.67;100.00;101184.59;5094652;27;20040;-79
2022/10/14 10:57:07;;;;;;;29.60;19.23;;;;;;;12.65;100.00;101181.09;5106622;27;20184;-79
2022/10/14 10:59:46;;;;;;;32.63;20.40;;;;;;;12.66;100.00;101179.31;5099696;27;20047;-78
2022/10/14 11:02:21;;;;;;;30.40;19.60;;;;;;;12.67;100.00;101174.03;5111728;27;20040;-78
2022/10/14 11:05:08;;;;;;;36.35;20.65;;;;;;;12.71;100.00;101177.56;5086696;27;20047;-78
2022/10/14 11:14:14;;;;;;;36.40;21.88;;;;;;;12.80;100.00;101164.34;5111613;27;20039;-78
2022/10/14 11:17:00;;;;;;;43.80;22.52;;;;;;;12.83;100.00;101166.97;5089870;27;20467;-78
2022/10/14 11:19:38;;;;;;;32.88;20.40;;;;;;;12.86;100.00;101156.38;5115234;27;20036;-77
2022/10/14 11:22:27;;;;;;;32.28;19.00;;;;;;;12.91;100.00;101152.84;5104117;27;20039;-77
2022/10/14 11:25:41;;;;;;;34.70;20.45;;;;;;;12.95;100.00;101149.31;5051429;27;20047;-78
2022/10/14 11:28:19;;;;;;;36.50;21.33;;;;;;;13.00;100.00;101140.47;5065938;27;20059;-79
2022/10/14 11:30:57;;;;;;;37.22;19.90;;;;;;;13.10;100.00;101145.75;5094964;27;20965;-80
2022/10/14 11:33:46;;;;;;;34.80;18.48;;;;;;;13.15;100.00;101144.00;5114590;27;20048;-77
2022/10/14 11:36:30;;;;;;;32.42;19.88;;;;;;;13.19;100.00;101132.50;5101566;27;20051;-77
2022/10/14 11:39:28;;;;;;;35.35;19.42;;;;;;;13.22;100.00;101137.81;5072937;28;21093;-79
2022/10/14 11:42:12;;;;;;;34.38;18.70;;;;;;;13.21;100.00;101126.34;5081619;27;20046;-78
2022/10/14 11:44:42;;;;;;;29.85;17.95;;;;;;;13.18;100.00;101123.69;5088418;27;20047;-78
2022/10/14 11:47:33;;;;;;;28.73;17.87;;;;;;;13.14;100.00;101113.13;5093121;28;20040;-78